sensor_id;sensor_type;location;lat;lon;timestamp;P1;durP1;ratioP1;P2;durP2;ratioP2
23596;SDS011;40226;50.874;4.394;2024-03-07T00:01:23;34.55;;;20.00;;
23596;SDS011;40226;50.874;4.394;2024-03-07T00:03:51;37.00;;;21.35;;
23596;SDS011;40226;50.874;4.394;2024-03-07T00:06:17;34.45;;;21.05;;
23596;SDS011;40226;50.874;4.394;2024-03-07T00:08:42;38.25;;;22.02;;
23596;SDS011;40226;50.874;4.394;2024-03-07T00:11:08;34.55;;;22.63;;
23596;SDS011;40226;50.874;4.394;2024-03-07T00:13:34;37.08;;;21.67;;
23596;SDS011;40226;50.874;4.394;2024-03-07T00:16:00;34.50;;;22.85;;
23596;SDS011;40226;50.874;4.394;2024-03-07T00:18:26;36.30;;;23.10;;
23596;SDS011;40226;50.874;4.394;2024-03-07T00:20:52;36.28;;;23.00;;
23596;SDS011;40226;50.874;4.394;2024-03-07T00:23:19;36.38;;;22.65;;
23596;SDS011;40226;50.874;4.394;2024-03-07T00:25:45;36.33;;;24.17;;
23596;SDS011;40226;50.874;4.394;2024-03-07T00:28:14;37.92;;;22.88;;
23596;SDS011;40226;50.874;4.394;2024-03-07T00:30:42;38.50;;;24.35;;
23596;SDS011;40226;50.874;4.394;2024-03-07T00:33:10;42.78;;;25.85;;
23596;SDS011;40226;50.874;4.394;2024-03-07T00:35:36;44.72;;;26.25;;
23596;SDS011;40226;50.874;4.394;2024-03-07T00:38:02;41.20;;;26.70;;
23596;SDS011;40226;50.874;4.394;2024-03-07T00:40:28;44.33;;;25.60;;
23596;SDS011;40226;50.874;4.394;2024-03-07T00:42:54;45.38;;;26.55;;
23596;SDS011;40226;50.874;4.394;2024-03-07T00:45:20;44.28;;;26.23;;
23596;SDS011;40226;50.874;4.394;2024-03-07T00:47:45;42.92;;;25.27;;
23596;SDS011;40226;50.874;4.394;2024-03-07T00:50:13;45.35;;;26.77;;
23596;SDS011;40226;50.874;4.394;2024-03-07T00:52:39;47.65;;;26.52;;
23596;SDS011;40226;50.874;4.394;2024-03-07T00:55:05;54.00;;;29.23;;
23596;SDS011;40226;50.874;4.394;2024-03-07T00:57:34;47.85;;;27.45;;
23596;SDS011;40226;50.874;4.394;2024-03-07T01:00:01;52.10;;;29.00;;
23596;SDS011;40226;50.874;4.394;2024-03-07T01:02:27;55.72;;;29.77;;
23596;SDS011;40226;50.874;4.394;2024-03-07T01:04:53;55.70;;;30.25;;
23596;SDS011;40226;50.874;4.394;2024-03-07T01:07:19;57.70;;;31.35;;
23596;SDS011;40226;50.874;4.394;2024-03-07T01:09:46;56.72;;;31.33;;
23596;SDS011;40226;50.874;4.394;2024-03-07T01:12:12;55.70;;;31.33;;
23596;SDS011;40226;50.874;4.394;2024-03-07T01:14:37;64.75;;;34.08;;
23596;SDS011;40226;50.874;4.394;2024-03-07T01:17:03;67.35;;;35.03;;
23596;SDS011;40226;50.874;4.394;2024-03-07T01:19:32;63.42;;;33.55;;
23596;SDS011;40226;50.874;4.394;2024-03-07T01:21:57;64.13;;;35.00;;
23596;SDS011;40226;50.874;4.394;2024-03-07T01:24:23;69.95;;;36.65;;
23596;SDS011;40226;50.874;4.394;2024-03-07T01:26:49;67.82;;;35.53;;
23596;SDS011;40226;50.874;4.394;2024-03-07T01:29:14;80.45;;;39.85;;
23596;SDS011;40226;50.874;4.394;2024-03-07T01:31:40;78.75;;;40.50;;
23596;SDS011;40226;50.874;4.394;2024-03-07T01:34:06;78.60;;;37.90;;
23596;SDS011;40226;50.874;4.394;2024-03-07T01:36:31;79.35;;;40.95;;
23596;SDS011;40226;50.874;4.394;2024-03-07T01:38:57;90.75;;;42.20;;
23596;SDS011;40226;50.874;4.394;2024-03-07T01:41:22;84.55;;;41.70;;
23596;SDS011;40226;50.874;4.394;2024-03-07T01:43:49;88.90;;;42.05;;
23596;SDS011;40226;50.874;4.394;2024-03-07T01:46:15;90.13;;;43.13;;
23596;SDS011;40226;50.874;4.394;2024-03-07T01:48:40;96.95;;;45.22;;
23596;SDS011;40226;50.874;4.394;2024-03-07T01:51:06;93.38;;;45.95;;
23596;SDS011;40226;50.874;4.394;2024-03-07T01:53:33;98.68;;;44.53;;
23596;SDS011;40226;50.874;4.394;2024-03-07T01:56:00;97.85;;;46.90;;
23596;SDS011;40226;50.874;4.394;2024-03-07T01:58:27;100.30;;;46.10;;
23596;SDS011;40226;50.874;4.394;2024-03-07T02:00:55;96.93;;;47.13;;
23596;SDS011;40226;50.874;4.394;2024-03-07T02:03:20;93.57;;;45.95;;
23596;SDS011;40226;50.874;4.394;2024-03-07T02:05:47;93.07;;;45.80;;
23596;SDS011;40226;50.874;4.394;2024-03-07T02:08:12;106.90;;;46.38;;
23596;SDS011;40226;50.874;4.394;2024-03-07T02:10:39;86.95;;;42.78;;
23596;SDS011;40226;50.874;4.394;2024-03-07T02:13:06;87.97;;;44.00;;
23596;SDS011;40226;50.874;4.394;2024-03-07T02:15:31;85.65;;;42.72;;
23596;SDS011;40226;50.874;4.394;2024-03-07T02:17:57;81.65;;;41.53;;
23596;SDS011;40226;50.874;4.394;2024-03-07T02:20:23;81.88;;;40.50;;
23596;SDS011;40226;50.874;4.394;2024-03-07T02:22:49;82.78;;;41.28;;
23596;SDS011;40226;50.874;4.394;2024-03-07T02:25:15;83.60;;;41.85;;
23596;SDS011;40226;50.874;4.394;2024-03-07T02:27:41;90.07;;;44.15;;
23596;SDS011;40226;50.874;4.394;2024-03-07T02:30:07;89.13;;;43.33;;
23596;SDS011;40226;50.874;4.394;2024-03-07T02:32:34;87.95;;;44.25;;
23596;SDS011;40226;50.874;4.394;2024-03-07T02:35:02;90.05;;;44.15;;
23596;SDS011;40226;50.874;4.394;2024-03-07T02:37:28;88.38;;;43.20;;
23596;SDS011;40226;50.874;4.394;2024-03-07T02:39:54;102.20;;;46.17;;
23596;SDS011;40226;50.874;4.394;2024-03-07T02:42:20;96.88;;;47.05;;
23596;SDS011;40226;50.874;4.394;2024-03-07T02:44:46;96.50;;;45.30;;
23596;SDS011;40226;50.874;4.394;2024-03-07T02:47:12;98.03;;;45.42;;
23596;SDS011;40226;50.874;4.394;2024-03-07T02:49:37;98.93;;;46.17;;
23596;SDS011;40226;50.874;4.394;2024-03-07T02:52:03;101.00;;;46.10;;
23596;SDS011;40226;50.874;4.394;2024-03-07T02:54:32;106.90;;;49.55;;
23596;SDS011;40226;50.874;4.394;2024-03-07T02:56:58;113.47;;;50.20;;
23596;SDS011;40226;50.874;4.394;2024-03-07T02:59:23;110.35;;;50.08;;
23596;SDS011;40226;50.874;4.394;2024-03-07T03:01:49;111.07;;;50.90;;
23596;SDS011;40226;50.874;4.394;2024-03-07T03:04:15;109.50;;;50.67;;
23596;SDS011;40226;50.874;4.394;2024-03-07T03:06:41;117.20;;;52.05;;
23596;SDS011;40226;50.874;4.394;2024-03-07T03:09:06;118.43;;;51.47;;
23596;SDS011;40226;50.874;4.394;2024-03-07T03:11:38;113.60;;;51.55;;
23596;SDS011;40226;50.874;4.394;2024-03-07T03:14:03;126.18;;;55.28;;
23596;SDS011;40226;50.874;4.394;2024-03-07T03:16:29;120.35;;;53.40;;
23596;SDS011;40226;50.874;4.394;2024-03-07T03:18:56;116.50;;;53.70;;
23596;SDS011;40226;50.874;4.394;2024-03-07T03:21:22;126.13;;;54.90;;
23596;SDS011;40226;50.874;4.394;2024-03-07T03:23:48;127.05;;;54.38;;
23596;SDS011;40226;50.874;4.394;2024-03-07T03:26:14;125.45;;;55.20;;
23596;SDS011;40226;50.874;4.394;2024-03-07T03:28:40;118.72;;;53.90;;
23596;SDS011;40226;50.874;4.394;2024-03-07T03:31:07;118.90;;;53.38;;
23596;SDS011;40226;50.874;4.394;2024-03-07T03:33:33;123.53;;;53.30;;
23596;SDS011;40226;50.874;4.394;2024-03-07T03:36:00;130.63;;;56.58;;
23596;SDS011;40226;50.874;4.394;2024-03-07T03:38:25;120.72;;;54.28;;
23596;SDS011;40226;50.874;4.394;2024-03-07T03:40:51;127.63;;;56.70;;
23596;SDS011;40226;50.874;4.394;2024-03-07T03:43:17;135.07;;;57.88;;
23596;SDS011;40226;50.874;4.394;2024-03-07T03:45:43;139.07;;;58.75;;
23596;SDS011;40226;50.874;4.394;2024-03-07T03:48:09;133.32;;;58.25;;
23596;SDS011;40226;50.874;4.394;2024-03-07T03:50:34;138.45;;;60.33;;
23596;SDS011;40226;50.874;4.394;2024-03-07T03:53:00;139.15;;;60.30;;
23596;SDS011;40226;50.874;4.394;2024-03-07T03:55:27;138.10;;;58.28;;
23596;SDS011;40226;50.874;4.394;2024-03-07T03:57:52;142.32;;;57.97;;
23596;SDS011;40226;50.874;4.394;2024-03-07T04:00:18;143.02;;;60.40;;
23596;SDS011;40226;50.874;4.394;2024-03-07T04:02:44;137.98;;;59.05;;
23596;SDS011;40226;50.874;4.394;2024-03-07T04:05:14;142.43;;;60.53;;
23596;SDS011;40226;50.874;4.394;2024-03-07T04:07:41;139.60;;;60.45;;
23596;SDS011;40226;50.874;4.394;2024-03-07T04:10:08;138.27;;;60.67;;
23596;SDS011;40226;50.874;4.394;2024-03-07T04:12:35;148.48;;;59.78;;
23596;SDS011;40226;50.874;4.394;2024-03-07T04:15:02;148.45;;;59.75;;
23596;SDS011;40226;50.874;4.394;2024-03-07T04:17:29;151.55;;;61.55;;
23596;SDS011;40226;50.874;4.394;2024-03-07T04:19:55;159.32;;;63.78;;
23596;SDS011;40226;50.874;4.394;2024-03-07T04:22:23;148.13;;;62.75;;
23596;SDS011;40226;50.874;4.394;2024-03-07T04:24:49;164.88;;;64.80;;
23596;SDS011;40226;50.874;4.394;2024-03-07T04:27:19;155.32;;;64.60;;
23596;SDS011;40226;50.874;4.394;2024-03-07T04:29:46;154.60;;;64.85;;
23596;SDS011;40226;50.874;4.394;2024-03-07T04:32:15;164.15;;;64.57;;
23596;SDS011;40226;50.874;4.394;2024-03-07T04:34:42;166.95;;;66.47;;
23596;SDS011;40226;50.874;4.394;2024-03-07T04:37:08;171.43;;;67.93;;
23596;SDS011;40226;50.874;4.394;2024-03-07T04:39:34;178.32;;;66.65;;
23596;SDS011;40226;50.874;4.394;2024-03-07T04:42:00;180.77;;;67.60;;
23596;SDS011;40226;50.874;4.394;2024-03-07T04:44:31;169.73;;;65.60;;
23596;SDS011;40226;50.874;4.394;2024-03-07T04:46:58;188.30;;;70.78;;
23596;SDS011;40226;50.874;4.394;2024-03-07T04:49:25;186.43;;;69.15;;
23596;SDS011;40226;50.874;4.394;2024-03-07T04:51:52;180.40;;;70.68;;
23596;SDS011;40226;50.874;4.394;2024-03-07T04:54:19;173.32;;;68.18;;
23596;SDS011;40226;50.874;4.394;2024-03-07T04:56:46;183.95;;;68.07;;
23596;SDS011;40226;50.874;4.394;2024-03-07T04:59:12;180.00;;;66.40;;
23596;SDS011;40226;50.874;4.394;2024-03-07T05:01:39;180.18;;;66.97;;
23596;SDS011;40226;50.874;4.394;2024-03-07T05:04:05;189.80;;;70.13;;
23596;SDS011;40226;50.874;4.394;2024-03-07T05:06:31;181.20;;;66.80;;
23596;SDS011;40226;50.874;4.394;2024-03-07T05:09:01;188.45;;;68.50;;
23596;SDS011;40226;50.874;4.394;2024-03-07T05:11:32;179.07;;;67.18;;
23596;SDS011;40226;50.874;4.394;2024-03-07T05:13:58;187.35;;;68.72;;
23596;SDS011;40226;50.874;4.394;2024-03-07T05:16:28;186.90;;;67.47;;
23596;SDS011;40226;50.874;4.394;2024-03-07T05:18:55;195.02;;;71.88;;
23596;SDS011;40226;50.874;4.394;2024-03-07T05:21:24;192.02;;;70.85;;
23596;SDS011;40226;50.874;4.394;2024-03-07T05:23:57;200.00;;;72.88;;
23596;SDS011;40226;50.874;4.394;2024-03-07T05:26:22;203.07;;;70.70;;
23596;SDS011;40226;50.874;4.394;2024-03-07T05:28:48;199.05;;;70.75;;
23596;SDS011;40226;50.874;4.394;2024-03-07T05:31:14;193.85;;;70.43;;
23596;SDS011;40226;50.874;4.394;2024-03-07T05:33:40;210.90;;;72.57;;
23596;SDS011;40226;50.874;4.394;2024-03-07T05:36:06;203.45;;;72.43;;
23596;SDS011;40226;50.874;4.394;2024-03-07T05:38:44;218.15;;;75.70;;
23596;SDS011;40226;50.874;4.394;2024-03-07T05:41:10;221.88;;;72.00;;
23596;SDS011;40226;50.874;4.394;2024-03-07T05:43:37;251.85;;;73.95;;
23596;SDS011;40226;50.874;4.394;2024-03-07T05:46:03;258.48;;;76.93;;
23596;SDS011;40226;50.874;4.394;2024-03-07T05:48:31;231.77;;;75.05;;
23596;SDS011;40226;50.874;4.394;2024-03-07T05:50:57;258.75;;;74.18;;
23596;SDS011;40226;50.874;4.394;2024-03-07T05:53:23;275.58;;;80.03;;
23596;SDS011;40226;50.874;4.394;2024-03-07T05:55:49;293.30;;;80.20;;
23596;SDS011;40226;50.874;4.394;2024-03-07T05:58:15;283.15;;;76.03;;
23596;SDS011;40226;50.874;4.394;2024-03-07T06:00:43;270.02;;;76.63;;
23596;SDS011;40226;50.874;4.394;2024-03-07T06:03:11;286.48;;;77.18;;
23596;SDS011;40226;50.874;4.394;2024-03-07T06:05:38;376.70;;;81.88;;
23596;SDS011;40226;50.874;4.394;2024-03-07T06:08:08;355.15;;;82.40;;
23596;SDS011;40226;50.874;4.394;2024-03-07T06:10:33;261.55;;;74.72;;
23596;SDS011;40226;50.874;4.394;2024-03-07T06:12:59;288.10;;;76.30;;
23596;SDS011;40226;50.874;4.394;2024-03-07T06:15:25;271.48;;;79.00;;
23596;SDS011;40226;50.874;4.394;2024-03-07T06:17:50;298.58;;;81.28;;
23596;SDS011;40226;50.874;4.394;2024-03-07T06:20:16;270.17;;;78.43;;
23596;SDS011;40226;50.874;4.394;2024-03-07T06:22:51;292.05;;;78.78;;
23596;SDS011;40226;50.874;4.394;2024-03-07T06:25:17;262.17;;;79.63;;
23596;SDS011;40226;50.874;4.394;2024-03-07T06:27:58;276.10;;;79.00;;
23596;SDS011;40226;50.874;4.394;2024-03-07T06:30:33;263.67;;;78.07;;
23596;SDS011;40226;50.874;4.394;2024-03-07T06:33:03;305.30;;;75.57;;
23596;SDS011;40226;50.874;4.394;2024-03-07T06:35:28;262.45;;;77.40;;
23596;SDS011;40226;50.874;4.394;2024-03-07T06:37:54;262.85;;;74.63;;
23596;SDS011;40226;50.874;4.394;2024-03-07T06:40:20;252.77;;;76.93;;
23596;SDS011;40226;50.874;4.394;2024-03-07T06:42:47;258.65;;;75.53;;
23596;SDS011;40226;50.874;4.394;2024-03-07T06:45:17;254.65;;;72.93;;
23596;SDS011;40226;50.874;4.394;2024-03-07T06:47:43;310.85;;;78.18;;
23596;SDS011;40226;50.874;4.394;2024-03-07T06:50:09;333.88;;;78.05;;
23596;SDS011;40226;50.874;4.394;2024-03-07T06:52:39;245.30;;;74.05;;
23596;SDS011;40226;50.874;4.394;2024-03-07T06:55:05;249.55;;;77.75;;
23596;SDS011;40226;50.874;4.394;2024-03-07T06:57:32;235.35;;;76.38;;
23596;SDS011;40226;50.874;4.394;2024-03-07T06:59:59;231.30;;;70.60;;
23596;SDS011;40226;50.874;4.394;2024-03-07T07:02:25;234.05;;;70.82;;
23596;SDS011;40226;50.874;4.394;2024-03-07T07:04:52;230.25;;;71.13;;
23596;SDS011;40226;50.874;4.394;2024-03-07T07:07:18;215.55;;;68.03;;
23596;SDS011;40226;50.874;4.394;2024-03-07T07:09:45;232.65;;;72.20;;
23596;SDS011;40226;50.874;4.394;2024-03-07T07:12:10;214.55;;;68.97;;
23596;SDS011;40226;50.874;4.394;2024-03-07T07:14:36;214.95;;;70.25;;
23596;SDS011;40226;50.874;4.394;2024-03-07T07:17:03;217.85;;;66.85;;
23596;SDS011;40226;50.874;4.394;2024-03-07T07:19:28;205.35;;;68.68;;
23596;SDS011;40226;50.874;4.394;2024-03-07T07:21:54;217.93;;;67.88;;
23596;SDS011;40226;50.874;4.394;2024-03-07T07:24:20;200.88;;;67.18;;
23596;SDS011;40226;50.874;4.394;2024-03-07T07:26:49;202.80;;;66.03;;
23596;SDS011;40226;50.874;4.394;2024-03-07T07:29:15;207.77;;;65.15;;
23596;SDS011;40226;50.874;4.394;2024-03-07T07:31:41;213.32;;;65.63;;
23596;SDS011;40226;50.874;4.394;2024-03-07T07:34:06;206.27;;;63.90;;
23596;SDS011;40226;50.874;4.394;2024-03-07T07:36:32;196.13;;;66.22;;
23596;SDS011;40226;50.874;4.394;2024-03-07T07:38:58;212.02;;;65.90;;
23596;SDS011;40226;50.874;4.394;2024-03-07T07:41:23;197.45;;;66.47;;
23596;SDS011;40226;50.874;4.394;2024-03-07T07:43:49;217.65;;;67.70;;
23596;SDS011;40226;50.874;4.394;2024-03-07T07:46:16;210.68;;;67.18;;
23596;SDS011;40226;50.874;4.394;2024-03-07T07:48:42;195.65;;;64.80;;
23596;SDS011;40226;50.874;4.394;2024-03-07T07:51:07;206.77;;;63.78;;
23596;SDS011;40226;50.874;4.394;2024-03-07T07:53:34;194.35;;;65.10;;
23596;SDS011;40226;50.874;4.394;2024-03-07T07:55:59;211.15;;;66.50;;
23596;SDS011;40226;50.874;4.394;2024-03-07T07:58:25;210.07;;;66.47;;
23596;SDS011;40226;50.874;4.394;2024-03-07T08:00:50;201.23;;;66.03;;
23596;SDS011;40226;50.874;4.394;2024-03-07T08:03:16;209.27;;;65.82;;
23596;SDS011;40226;50.874;4.394;2024-03-07T08:05:43;179.13;;;62.65;;
23596;SDS011;40226;50.874;4.394;2024-03-07T08:08:10;190.10;;;62.58;;
23596;SDS011;40226;50.874;4.394;2024-03-07T08:10:41;175.05;;;59.08;;
23596;SDS011;40226;50.874;4.394;2024-03-07T08:13:07;168.30;;;58.60;;
23596;SDS011;40226;50.874;4.394;2024-03-07T08:15:35;169.63;;;57.65;;
23596;SDS011;40226;50.874;4.394;2024-03-07T08:18:01;167.90;;;57.70;;
23596;SDS011;40226;50.874;4.394;2024-03-07T08:20:27;157.90;;;55.28;;
23596;SDS011;40226;50.874;4.394;2024-03-07T08:22:54;180.05;;;61.38;;
23596;SDS011;40226;50.874;4.394;2024-03-07T08:25:21;166.90;;;58.42;;
23596;SDS011;40226;50.874;4.394;2024-03-07T08:27:49;159.88;;;56.97;;
23596;SDS011;40226;50.874;4.394;2024-03-07T08:30:15;162.02;;;56.53;;
23596;SDS011;40226;50.874;4.394;2024-03-07T08:32:43;160.77;;;54.13;;
23596;SDS011;40226;50.874;4.394;2024-03-07T08:35:10;154.48;;;56.00;;
23596;SDS011;40226;50.874;4.394;2024-03-07T08:37:36;156.15;;;57.05;;
23596;SDS011;40226;50.874;4.394;2024-03-07T08:40:06;157.60;;;56.67;;
23596;SDS011;40226;50.874;4.394;2024-03-07T08:42:34;155.20;;;56.08;;
23596;SDS011;40226;50.874;4.394;2024-03-07T08:45:04;150.25;;;54.67;;
23596;SDS011;40226;50.874;4.394;2024-03-07T08:47:33;149.32;;;54.33;;
23596;SDS011;40226;50.874;4.394;2024-03-07T08:50:00;150.95;;;54.08;;
23596;SDS011;40226;50.874;4.394;2024-03-07T08:52:26;147.38;;;54.10;;
23596;SDS011;40226;50.874;4.394;2024-03-07T08:54:53;141.35;;;53.08;;
23596;SDS011;40226;50.874;4.394;2024-03-07T08:57:19;152.13;;;55.97;;
23596;SDS011;40226;50.874;4.394;2024-03-07T08:59:46;143.35;;;53.05;;
23596;SDS011;40226;50.874;4.394;2024-03-07T09:02:12;148.65;;;54.33;;
23596;SDS011;40226;50.874;4.394;2024-03-07T09:04:38;134.88;;;51.92;;
23596;SDS011;40226;50.874;4.394;2024-03-07T09:07:04;135.90;;;51.90;;
23596;SDS011;40226;50.874;4.394;2024-03-07T09:09:33;139.88;;;52.30;;
23596;SDS011;40226;50.874;4.394;2024-03-07T09:12:00;126.63;;;51.55;;
23596;SDS011;40226;50.874;4.394;2024-03-07T09:14:30;136.93;;;51.60;;
23596;SDS011;40226;50.874;4.394;2024-03-07T09:16:55;135.80;;;53.13;;
23596;SDS011;40226;50.874;4.394;2024-03-07T09:19:22;131.70;;;52.00;;
23596;SDS011;40226;50.874;4.394;2024-03-07T09:21:52;138.75;;;54.47;;
23596;SDS011;40226;50.874;4.394;2024-03-07T09:24:18;125.97;;;50.58;;
23596;SDS011;40226;50.874;4.394;2024-03-07T09:26:50;131.93;;;50.22;;
23596;SDS011;40226;50.874;4.394;2024-03-07T09:29:16;129.73;;;50.75;;
23596;SDS011;40226;50.874;4.394;2024-03-07T09:31:43;124.82;;;51.70;;
23596;SDS011;40226;50.874;4.394;2024-03-07T09:34:10;117.45;;;51.20;;
23596;SDS011;40226;50.874;4.394;2024-03-07T09:36:37;120.85;;;49.20;;
23596;SDS011;40226;50.874;4.394;2024-03-07T09:39:04;120.57;;;50.97;;
23596;SDS011;40226;50.874;4.394;2024-03-07T09:41:30;125.20;;;51.20;;
23596;SDS011;40226;50.874;4.394;2024-03-07T09:43:57;131.30;;;54.28;;
23596;SDS011;40226;50.874;4.394;2024-03-07T09:46:24;123.13;;;49.90;;
23596;SDS011;40226;50.874;4.394;2024-03-07T09:48:50;130.90;;;52.25;;
23596;SDS011;40226;50.874;4.394;2024-03-07T09:51:18;132.50;;;54.13;;
23596;SDS011;40226;50.874;4.394;2024-03-07T09:53:48;124.20;;;52.60;;
23596;SDS011;40226;50.874;4.394;2024-03-07T09:56:25;120.22;;;51.95;;
23596;SDS011;40226;50.874;4.394;2024-03-07T09:58:53;120.10;;;50.58;;
23596;SDS011;40226;50.874;4.394;2024-03-07T10:01:24;128.60;;;54.72;;
23596;SDS011;40226;50.874;4.394;2024-03-07T10:03:58;119.07;;;51.05;;
23596;SDS011;40226;50.874;4.394;2024-03-07T10:06:35;127.37;;;52.57;;
23596;SDS011;40226;50.874;4.394;2024-03-07T10:09:00;113.72;;;50.97;;
23596;SDS011;40226;50.874;4.394;2024-03-07T10:11:26;118.53;;;51.38;;
23596;SDS011;40226;50.874;4.394;2024-03-07T10:13:52;122.75;;;50.97;;
23596;SDS011;40226;50.874;4.394;2024-03-07T10:16:18;112.85;;;50.05;;
23596;SDS011;40226;50.874;4.394;2024-03-07T10:18:44;118.68;;;51.65;;
23596;SDS011;40226;50.874;4.394;2024-03-07T10:21:12;120.60;;;50.30;;
23596;SDS011;40226;50.874;4.394;2024-03-07T10:23:38;115.65;;;51.28;;
23596;SDS011;40226;50.874;4.394;2024-03-07T10:26:05;111.88;;;51.17;;
23596;SDS011;40226;50.874;4.394;2024-03-07T10:28:31;118.00;;;51.10;;
23596;SDS011;40226;50.874;4.394;2024-03-07T10:30:58;111.90;;;50.00;;
23596;SDS011;40226;50.874;4.394;2024-03-07T10:33:28;116.13;;;51.83;;
23596;SDS011;40226;50.874;4.394;2024-03-07T10:35:58;115.30;;;50.20;;
23596;SDS011;40226;50.874;4.394;2024-03-07T10:38:24;118.43;;;52.67;;
23596;SDS011;40226;50.874;4.394;2024-03-07T10:40:53;112.80;;;51.83;;
23596;SDS011;40226;50.874;4.394;2024-03-07T10:43:21;114.00;;;52.22;;
23596;SDS011;40226;50.874;4.394;2024-03-07T10:45:48;111.63;;;50.25;;
23596;SDS011;40226;50.874;4.394;2024-03-07T10:48:17;110.60;;;51.65;;
23596;SDS011;40226;50.874;4.394;2024-03-07T10:59:21;94.07;;;43.72;;
23596;SDS011;40226;50.874;4.394;2024-03-07T11:04:47;81.75;;;39.95;;
23596;SDS011;40226;50.874;4.394;2024-03-07T11:07:20;78.72;;;40.58;;
23596;SDS011;40226;50.874;4.394;2024-03-07T11:09:51;85.97;;;41.80;;
23596;SDS011;40226;50.874;4.394;2024-03-07T11:12:21;82.32;;;42.75;;
23596;SDS011;40226;50.874;4.394;2024-03-07T11:14:49;77.05;;;40.65;;
23596;SDS011;40226;50.874;4.394;2024-03-07T11:17:17;72.70;;;39.90;;
23596;SDS011;40226;50.874;4.394;2024-03-07T11:19:44;77.55;;;40.45;;
23596;SDS011;40226;50.874;4.394;2024-03-07T11:22:10;75.00;;;38.83;;
23596;SDS011;40226;50.874;4.394;2024-03-07T11:24:42;72.55;;;40.20;;
23596;SDS011;40226;50.874;4.394;2024-03-07T11:27:11;68.90;;;38.13;;
23596;SDS011;40226;50.874;4.394;2024-03-07T11:29:42;73.95;;;39.72;;
23596;SDS011;40226;50.874;4.394;2024-03-07T11:32:18;67.05;;;38.58;;
23596;SDS011;40226;50.874;4.394;2024-03-07T11:34:46;62.03;;;36.80;;
23596;SDS011;40226;50.874;4.394;2024-03-07T11:40:09;62.20;;;35.70;;
23596;SDS011;40226;50.874;4.394;2024-03-07T11:42:43;62.72;;;37.38;;
23596;SDS011;40226;50.874;4.394;2024-03-07T11:45:11;65.15;;;35.97;;
23596;SDS011;40226;50.874;4.394;2024-03-07T11:47:45;66.18;;;37.95;;
23596;SDS011;40226;50.874;4.394;2024-03-07T11:50:11;65.82;;;36.80;;
23596;SDS011;40226;50.874;4.394;2024-03-07T11:52:37;63.65;;;35.28;;
23596;SDS011;40226;50.874;4.394;2024-03-07T11:55:09;62.10;;;35.88;;
23596;SDS011;40226;50.874;4.394;2024-03-07T11:57:35;64.53;;;36.58;;
23596;SDS011;40226;50.874;4.394;2024-03-07T12:00:03;61.40;;;36.28;;
23596;SDS011;40226;50.874;4.394;2024-03-07T12:02:36;68.05;;;35.38;;
23596;SDS011;40226;50.874;4.394;2024-03-07T12:05:02;66.40;;;36.95;;
23596;SDS011;40226;50.874;4.394;2024-03-07T12:07:30;71.55;;;37.55;;
23596;SDS011;40226;50.874;4.394;2024-03-07T12:09:56;68.30;;;37.70;;
23596;SDS011;40226;50.874;4.394;2024-03-07T12:12:22;62.17;;;34.53;;
23596;SDS011;40226;50.874;4.394;2024-03-07T12:14:49;58.90;;;33.72;;
23596;SDS011;40226;50.874;4.394;2024-03-07T12:17:19;62.28;;;34.90;;
23596;SDS011;40226;50.874;4.394;2024-03-07T12:19:46;60.97;;;34.58;;
23596;SDS011;40226;50.874;4.394;2024-03-07T12:22:12;62.40;;;35.05;;
23596;SDS011;40226;50.874;4.394;2024-03-07T12:24:41;64.38;;;34.63;;
23596;SDS011;40226;50.874;4.394;2024-03-07T12:27:15;59.83;;;35.60;;
23596;SDS011;40226;50.874;4.394;2024-03-07T12:29:41;55.42;;;33.47;;
23596;SDS011;40226;50.874;4.394;2024-03-07T12:32:08;60.42;;;34.28;;
23596;SDS011;40226;50.874;4.394;2024-03-07T12:34:38;58.70;;;32.33;;
23596;SDS011;40226;50.874;4.394;2024-03-07T12:37:06;54.67;;;30.67;;
23596;SDS011;40226;50.874;4.394;2024-03-07T12:39:33;57.10;;;30.75;;
23596;SDS011;40226;50.874;4.394;2024-03-07T12:42:11;52.97;;;31.45;;
23596;SDS011;40226;50.874;4.394;2024-03-07T12:44:42;55.75;;;33.75;;
23596;SDS011;40226;50.874;4.394;2024-03-07T12:47:11;54.90;;;32.90;;
23596;SDS011;40226;50.874;4.394;2024-03-07T12:49:41;58.47;;;33.38;;
23596;SDS011;40226;50.874;4.394;2024-03-07T12:52:07;52.78;;;33.95;;
23596;SDS011;40226;50.874;4.394;2024-03-07T12:54:34;66.20;;;33.90;;
23596;SDS011;40226;50.874;4.394;2024-03-07T12:57:11;57.38;;;34.28;;
23596;SDS011;40226;50.874;4.394;2024-03-07T12:59:40;56.42;;;34.15;;
23596;SDS011;40226;50.874;4.394;2024-03-07T13:02:09;61.40;;;35.22;;
23596;SDS011;40226;50.874;4.394;2024-03-07T13:04:36;96.90;;;38.00;;
23596;SDS011;40226;50.874;4.394;2024-03-07T13:07:07;60.30;;;35.63;;
23596;SDS011;40226;50.874;4.394;2024-03-07T13:09:33;60.75;;;37.40;;
23596;SDS011;40226;50.874;4.394;2024-03-07T13:11:59;56.47;;;34.53;;
23596;SDS011;40226;50.874;4.394;2024-03-07T13:14:29;53.05;;;34.67;;
23596;SDS011;40226;50.874;4.394;2024-03-07T13:16:57;55.45;;;33.28;;
23596;SDS011;40226;50.874;4.394;2024-03-07T13:19:32;55.65;;;35.65;;
23596;SDS011;40226;50.874;4.394;2024-03-07T13:21:58;53.35;;;33.53;;
23596;SDS011;40226;50.874;4.394;2024-03-07T13:24:24;50.50;;;32.58;;
23596;SDS011;40226;50.874;4.394;2024-03-07T13:26:51;48.90;;;32.03;;
23596;SDS011;40226;50.874;4.394;2024-03-07T13:29:18;59.42;;;31.98;;
23596;SDS011;40226;50.874;4.394;2024-03-07T13:31:50;50.13;;;31.48;;
23596;SDS011;40226;50.874;4.394;2024-03-07T13:34:17;48.30;;;32.75;;
23596;SDS011;40226;50.874;4.394;2024-03-07T13:36:43;47.28;;;31.00;;
23596;SDS011;40226;50.874;4.394;2024-03-07T13:39:10;54.97;;;32.47;;
23596;SDS011;40226;50.874;4.394;2024-03-07T13:41:39;48.33;;;31.33;;
23596;SDS011;40226;50.874;4.394;2024-03-07T13:44:06;49.25;;;31.15;;
23596;SDS011;40226;50.874;4.394;2024-03-07T13:46:32;44.65;;;29.95;;
23596;SDS011;40226;50.874;4.394;2024-03-07T13:49:01;43.63;;;29.55;;
23596;SDS011;40226;50.874;4.394;2024-03-07T13:51:40;44.40;;;30.35;;
23596;SDS011;40226;50.874;4.394;2024-03-07T13:54:18;45.67;;;30.15;;
23596;SDS011;40226;50.874;4.394;2024-03-07T14:05:34;42.20;;;27.42;;
23596;SDS011;40226;50.874;4.394;2024-03-07T14:20:44;42.42;;;26.98;;
23596;SDS011;40226;50.874;4.394;2024-03-07T14:32:11;36.85;;;24.10;;
23596;SDS011;40226;50.874;4.394;2024-03-07T14:37:51;43.67;;;26.85;;
23596;SDS011;40226;50.874;4.394;2024-03-07T14:40:26;40.13;;;27.63;;
23596;SDS011;40226;50.874;4.394;2024-03-07T14:42:54;37.30;;;26.75;;
23596;SDS011;40226;50.874;4.394;2024-03-07T14:45:22;37.78;;;28.67;;
23596;SDS011;40226;50.874;4.394;2024-03-07T14:47:54;39.60;;;28.95;;
23596;SDS011;40226;50.874;4.394;2024-03-07T14:50:19;39.55;;;29.20;;
23596;SDS011;40226;50.874;4.394;2024-03-07T14:52:48;38.95;;;27.88;;
23596;SDS011;40226;50.874;4.394;2024-03-07T14:55:13;38.88;;;26.83;;
23596;SDS011;40226;50.874;4.394;2024-03-07T14:57:40;34.80;;;27.42;;
23596;SDS011;40226;50.874;4.394;2024-03-07T15:00:07;39.75;;;26.70;;
23596;SDS011;40226;50.874;4.394;2024-03-07T15:02:44;35.78;;;26.33;;